sensor_id;sensor_type;location;lat;lon;timestamp;P1;durP1;ratioP1;P2;durP2;ratioP2
2956;SDS011;1488;51.548;7.222;2023-05-14T00:02:22;2.30;;;2.20;;
2956;SDS011;1488;51.548;7.222;2023-05-14T00:04:49;2.20;;;2.00;;
2956;SDS011;1488;51.548;7.222;2023-05-14T00:07:15;2.93;;;2.73;;
2956;SDS011;1488;51.548;7.222;2023-05-14T00:09:42;2.97;;;2.77;;
2956;SDS011;1488;51.548;7.222;2023-05-14T00:12:09;2.73;;;2.53;;
2956;SDS011;1488;51.548;7.222;2023-05-14T00:14:36;2.53;;;2.33;;
2956;SDS011;1488;51.548;7.222;2023-05-14T00:17:03;2.87;;;2.67;;
2956;SDS011;1488;51.548;7.222;2023-05-14T00:19:32;2.30;;;2.10;;
2956;SDS011;1488;51.548;7.222;2023-05-14T00:21:59;2.77;;;2.57;;
2956;SDS011;1488;51.548;7.222;2023-05-14T00:24:26;3.20;;;3.00;;
2956;SDS011;1488;51.548;7.222;2023-05-14T00:26:53;2.10;;;2.00;;
2956;SDS011;1488;51.548;7.222;2023-05-14T00:29:20;2.83;;;2.63;;
2956;SDS011;1488;51.548;7.222;2023-05-14T00:31:47;3.20;;;2.40;;
2956;SDS011;1488;51.548;7.222;2023-05-14T00:34:13;4.33;;;2.80;;
2956;SDS011;1488;51.548;7.222;2023-05-14T00:36:42;3.00;;;2.80;;
2956;SDS011;1488;51.548;7.222;2023-05-14T00:39:08;2.90;;;2.70;;
2956;SDS011;1488;51.548;7.222;2023-05-14T00:41:36;2.83;;;2.63;;
2956;SDS011;1488;51.548;7.222;2023-05-14T00:44:03;3.13;;;2.83;;
2956;SDS011;1488;51.548;7.222;2023-05-14T00:46:30;2.73;;;2.53;;
2956;SDS011;1488;51.548;7.222;2023-05-14T00:48:57;2.87;;;2.67;;
2956;SDS011;1488;51.548;7.222;2023-05-14T00:51:25;2.53;;;2.33;;
2956;SDS011;1488;51.548;7.222;2023-05-14T00:53:53;2.37;;;2.27;;
2956;SDS011;1488;51.548;7.222;2023-05-14T00:56:20;2.40;;;2.30;;
2956;SDS011;1488;51.548;7.222;2023-05-14T00:58:47;2.90;;;2.50;;
2956;SDS011;1488;51.548;7.222;2023-05-14T01:01:14;2.87;;;2.63;;
2956;SDS011;1488;51.548;7.222;2023-05-14T01:03:42;2.60;;;2.40;;
2956;SDS011;1488;51.548;7.222;2023-05-14T01:06:10;2.60;;;2.40;;
2956;SDS011;1488;51.548;7.222;2023-05-14T01:08:45;2.63;;;2.43;;
2956;SDS011;1488;51.548;7.222;2023-05-14T01:11:21;2.90;;;2.70;;
2956;SDS011;1488;51.548;7.222;2023-05-14T01:13:55;3.27;;;3.00;;
2956;SDS011;1488;51.548;7.222;2023-05-14T01:16:28;2.77;;;2.57;;
2956;SDS011;1488;51.548;7.222;2023-05-14T01:18:58;2.90;;;2.70;;
2956;SDS011;1488;51.548;7.222;2023-05-14T01:21:35;3.07;;;2.63;;
2956;SDS011;1488;51.548;7.222;2023-05-14T01:24:02;3.60;;;3.40;;
2956;SDS011;1488;51.548;7.222;2023-05-14T01:26:30;2.87;;;2.67;;
2956;SDS011;1488;51.548;7.222;2023-05-14T01:28:58;2.20;;;2.10;;
2956;SDS011;1488;51.548;7.222;2023-05-14T01:31:29;3.07;;;2.87;;
2956;SDS011;1488;51.548;7.222;2023-05-14T01:33:57;2.90;;;2.70;;
2956;SDS011;1488;51.548;7.222;2023-05-14T01:36:25;2.47;;;2.30;;
2956;SDS011;1488;51.548;7.222;2023-05-14T01:38:55;2.50;;;2.30;;
2956;SDS011;1488;51.548;7.222;2023-05-14T01:41:22;2.70;;;2.27;;
2956;SDS011;1488;51.548;7.222;2023-05-14T01:43:51;2.30;;;2.20;;
2956;SDS011;1488;51.548;7.222;2023-05-14T01:46:18;3.03;;;2.73;;
2956;SDS011;1488;51.548;7.222;2023-05-14T01:48:48;2.60;;;2.40;;
2956;SDS011;1488;51.548;7.222;2023-05-14T01:51:14;2.73;;;2.53;;
2956;SDS011;1488;51.548;7.222;2023-05-14T01:53:43;2.67;;;2.47;;
2956;SDS011;1488;51.548;7.222;2023-05-14T01:56:11;2.80;;;2.60;;
2956;SDS011;1488;51.548;7.222;2023-05-14T01:58:38;2.73;;;2.53;;
2956;SDS011;1488;51.548;7.222;2023-05-14T02:01:05;3.00;;;2.80;;
2956;SDS011;1488;51.548;7.222;2023-05-14T02:03:32;2.53;;;2.33;;
2956;SDS011;1488;51.548;7.222;2023-05-14T02:05:58;2.93;;;2.70;;
2956;SDS011;1488;51.548;7.222;2023-05-14T02:08:25;2.70;;;2.50;;
2956;SDS011;1488;51.548;7.222;2023-05-14T02:10:52;7.50;;;2.87;;
2956;SDS011;1488;51.548;7.222;2023-05-14T02:13:20;2.27;;;2.17;;
2956;SDS011;1488;51.548;7.222;2023-05-14T02:15:48;2.40;;;2.20;;
2956;SDS011;1488;51.548;7.222;2023-05-14T02:18:14;2.40;;;2.30;;
2956;SDS011;1488;51.548;7.222;2023-05-14T02:20:41;2.27;;;2.10;;
2956;SDS011;1488;51.548;7.222;2023-05-14T02:23:08;2.53;;;2.33;;
2956;SDS011;1488;51.548;7.222;2023-05-14T02:25:35;3.00;;;2.80;;
2956;SDS011;1488;51.548;7.222;2023-05-14T02:28:02;2.33;;;2.20;;
2956;SDS011;1488;51.548;7.222;2023-05-14T02:30:30;2.73;;;2.27;;
2956;SDS011;1488;51.548;7.222;2023-05-14T02:32:57;2.80;;;2.60;;
2956;SDS011;1488;51.548;7.222;2023-05-14T02:35:24;2.80;;;2.60;;
2956;SDS011;1488;51.548;7.222;2023-05-14T02:37:51;2.60;;;2.40;;
2956;SDS011;1488;51.548;7.222;2023-05-14T02:40:18;2.70;;;2.50;;
2956;SDS011;1488;51.548;7.222;2023-05-14T02:42:45;2.40;;;2.20;;
2956;SDS011;1488;51.548;7.222;2023-05-14T02:45:11;3.20;;;2.50;;
2956;SDS011;1488;51.548;7.222;2023-05-14T02:47:40;2.73;;;2.50;;
2956;SDS011;1488;51.548;7.222;2023-05-14T02:50:07;2.53;;;2.33;;
2956;SDS011;1488;51.548;7.222;2023-05-14T02:52:35;2.57;;;2.37;;
2956;SDS011;1488;51.548;7.222;2023-05-14T02:55:02;2.50;;;2.40;;
2956;SDS011;1488;51.548;7.222;2023-05-14T02:57:29;2.43;;;2.23;;
2956;SDS011;1488;51.548;7.222;2023-05-14T02:59:56;2.43;;;2.30;;
2956;SDS011;1488;51.548;7.222;2023-05-14T03:02:22;2.40;;;2.30;;
2956;SDS011;1488;51.548;7.222;2023-05-14T03:04:51;2.73;;;2.63;;
2956;SDS011;1488;51.548;7.222;2023-05-14T03:07:17;3.10;;;2.90;;
2956;SDS011;1488;51.548;7.222;2023-05-14T03:09:44;2.83;;;2.63;;
2956;SDS011;1488;51.548;7.222;2023-05-14T03:12:11;2.40;;;2.30;;
2956;SDS011;1488;51.548;7.222;2023-05-14T03:14:38;2.53;;;2.33;;
2956;SDS011;1488;51.548;7.222;2023-05-14T03:17:05;3.93;;;2.90;;
2956;SDS011;1488;51.548;7.222;2023-05-14T03:19:32;2.00;;;1.90;;
2956;SDS011;1488;51.548;7.222;2023-05-14T03:22:00;2.57;;;2.30;;
2956;SDS011;1488;51.548;7.222;2023-05-14T03:24:27;2.53;;;2.43;;
2956;SDS011;1488;51.548;7.222;2023-05-14T03:26:54;2.40;;;2.20;;
2956;SDS011;1488;51.548;7.222;2023-05-14T03:29:20;2.93;;;2.73;;
2956;SDS011;1488;51.548;7.222;2023-05-14T03:31:47;3.30;;;3.00;;
2956;SDS011;1488;51.548;7.222;2023-05-14T03:34:14;2.80;;;2.60;;
2956;SDS011;1488;51.548;7.222;2023-05-14T03:36:41;2.70;;;2.50;;
2956;SDS011;1488;51.548;7.222;2023-05-14T03:39:09;2.30;;;2.20;;
2956;SDS011;1488;51.548;7.222;2023-05-14T03:41:39;3.00;;;2.70;;
2956;SDS011;1488;51.548;7.222;2023-05-14T03:44:06;2.47;;;2.27;;
2956;SDS011;1488;51.548;7.222;2023-05-14T03:46:33;2.90;;;2.70;;
2956;SDS011;1488;51.548;7.222;2023-05-14T03:48:59;2.60;;;2.40;;
2956;SDS011;1488;51.548;7.222;2023-05-14T03:51:26;3.17;;;2.97;;
2956;SDS011;1488;51.548;7.222;2023-05-14T03:53:53;2.70;;;2.50;;
2956;SDS011;1488;51.548;7.222;2023-05-14T03:56:21;2.70;;;2.50;;
2956;SDS011;1488;51.548;7.222;2023-05-14T03:58:48;2.73;;;2.53;;
2956;SDS011;1488;51.548;7.222;2023-05-14T04:01:15;3.23;;;2.40;;
2956;SDS011;1488;51.548;7.222;2023-05-14T04:03:42;2.63;;;2.43;;
2956;SDS011;1488;51.548;7.222;2023-05-14T04:06:09;2.83;;;2.63;;
2956;SDS011;1488;51.548;7.222;2023-05-14T04:08:36;3.10;;;2.90;;
2956;SDS011;1488;51.548;7.222;2023-05-14T04:11:02;2.47;;;2.27;;
2956;SDS011;1488;51.548;7.222;2023-05-14T04:13:31;3.03;;;2.83;;
2956;SDS011;1488;51.548;7.222;2023-05-14T04:15:57;2.87;;;2.67;;
2956;SDS011;1488;51.548;7.222;2023-05-14T04:18:25;2.60;;;2.40;;
2956;SDS011;1488;51.548;7.222;2023-05-14T04:20:52;2.70;;;2.50;;
2956;SDS011;1488;51.548;7.222;2023-05-14T04:23:19;3.00;;;2.80;;
2956;SDS011;1488;51.548;7.222;2023-05-14T04:25:46;2.90;;;2.67;;
2956;SDS011;1488;51.548;7.222;2023-05-14T04:28:13;2.60;;;2.40;;
2956;SDS011;1488;51.548;7.222;2023-05-14T04:30:41;2.20;;;2.10;;
2956;SDS011;1488;51.548;7.222;2023-05-14T04:33:08;3.13;;;2.93;;
2956;SDS011;1488;51.548;7.222;2023-05-14T04:35:37;3.27;;;3.00;;
2956;SDS011;1488;51.548;7.222;2023-05-14T04:38:04;3.17;;;2.97;;
2956;SDS011;1488;51.548;7.222;2023-05-14T04:40:31;3.17;;;2.90;;
2956;SDS011;1488;51.548;7.222;2023-05-14T04:43:00;2.97;;;2.77;;
2956;SDS011;1488;51.548;7.222;2023-05-14T04:45:27;2.80;;;2.60;;
2956;SDS011;1488;51.548;7.222;2023-05-14T04:47:55;2.67;;;2.53;;
2956;SDS011;1488;51.548;7.222;2023-05-14T04:50:22;2.63;;;2.53;;
2956;SDS011;1488;51.548;7.222;2023-05-14T04:52:49;2.73;;;2.53;;
2956;SDS011;1488;51.548;7.222;2023-05-14T04:55:16;3.13;;;2.90;;
2956;SDS011;1488;51.548;7.222;2023-05-14T04:57:43;2.80;;;2.60;;
2956;SDS011;1488;51.548;7.222;2023-05-14T05:00:11;3.40;;;3.20;;
2956;SDS011;1488;51.548;7.222;2023-05-14T05:02:39;2.60;;;2.40;;
2956;SDS011;1488;51.548;7.222;2023-05-14T05:05:08;2.53;;;2.33;;
2956;SDS011;1488;51.548;7.222;2023-05-14T05:07:35;2.73;;;2.60;;
2956;SDS011;1488;51.548;7.222;2023-05-14T05:10:02;2.83;;;2.63;;
2956;SDS011;1488;51.548;7.222;2023-05-14T05:12:29;2.63;;;2.43;;
2956;SDS011;1488;51.548;7.222;2023-05-14T05:14:56;3.23;;;3.03;;
2956;SDS011;1488;51.548;7.222;2023-05-14T05:17:23;2.70;;;2.50;;
2956;SDS011;1488;51.548;7.222;2023-05-14T05:19:50;2.93;;;2.73;;
2956;SDS011;1488;51.548;7.222;2023-05-14T05:22:19;2.40;;;2.20;;
2956;SDS011;1488;51.548;7.222;2023-05-14T05:24:45;3.50;;;2.60;;
2956;SDS011;1488;51.548;7.222;2023-05-14T05:27:12;2.50;;;2.30;;
2956;SDS011;1488;51.548;7.222;2023-05-14T05:29:39;2.60;;;2.40;;
2956;SDS011;1488;51.548;7.222;2023-05-14T05:32:06;2.73;;;2.53;;
2956;SDS011;1488;51.548;7.222;2023-05-14T05:34:33;6.33;;;2.60;;
2956;SDS011;1488;51.548;7.222;2023-05-14T05:37:00;2.90;;;2.10;;
2956;SDS011;1488;51.548;7.222;2023-05-14T05:39:29;2.77;;;2.57;;
2956;SDS011;1488;51.548;7.222;2023-05-14T05:41:58;3.07;;;2.83;;
2956;SDS011;1488;51.548;7.222;2023-05-14T05:44:25;2.63;;;2.43;;
2956;SDS011;1488;51.548;7.222;2023-05-14T05:46:52;2.83;;;2.63;;
2956;SDS011;1488;51.548;7.222;2023-05-14T05:49:21;3.60;;;3.17;;
2956;SDS011;1488;51.548;7.222;2023-05-14T05:51:48;3.00;;;2.80;;
2956;SDS011;1488;51.548;7.222;2023-05-14T05:54:15;2.40;;;2.30;;
2956;SDS011;1488;51.548;7.222;2023-05-14T05:56:43;2.93;;;2.73;;
2956;SDS011;1488;51.548;7.222;2023-05-14T05:59:10;3.00;;;2.80;;
2956;SDS011;1488;51.548;7.222;2023-05-14T06:01:36;2.90;;;2.70;;
2956;SDS011;1488;51.548;7.222;2023-05-14T06:04:04;2.27;;;2.17;;
2956;SDS011;1488;51.548;7.222;2023-05-14T06:06:31;2.90;;;2.70;;
2956;SDS011;1488;51.548;7.222;2023-05-14T06:08:58;2.77;;;2.57;;
2956;SDS011;1488;51.548;7.222;2023-05-14T06:11:26;2.67;;;2.47;;
2956;SDS011;1488;51.548;7.222;2023-05-14T06:13:54;3.40;;;3.20;;
2956;SDS011;1488;51.548;7.222;2023-05-14T06:16:21;2.70;;;2.50;;
2956;SDS011;1488;51.548;7.222;2023-05-14T06:18:48;2.90;;;2.70;;
2956;SDS011;1488;51.548;7.222;2023-05-14T06:21:16;2.70;;;2.50;;
2956;SDS011;1488;51.548;7.222;2023-05-14T06:23:43;2.93;;;2.73;;
2956;SDS011;1488;51.548;7.222;2023-05-14T06:26:10;2.90;;;2.70;;
2956;SDS011;1488;51.548;7.222;2023-05-14T06:28:36;2.90;;;2.70;;
2956;SDS011;1488;51.548;7.222;2023-05-14T06:31:05;3.33;;;2.73;;
2956;SDS011;1488;51.548;7.222;2023-05-14T06:33:31;2.83;;;2.63;;
2956;SDS011;1488;51.548;7.222;2023-05-14T06:35:59;3.27;;;3.07;;
2956;SDS011;1488;51.548;7.222;2023-05-14T06:38:30;2.90;;;2.70;;
2956;SDS011;1488;51.548;7.222;2023-05-14T06:40:57;2.70;;;2.50;;
2956;SDS011;1488;51.548;7.222;2023-05-14T06:43:23;2.70;;;2.50;;
2956;SDS011;1488;51.548;7.222;2023-05-14T06:45:50;2.83;;;2.63;;
2956;SDS011;1488;51.548;7.222;2023-05-14T06:48:19;3.40;;;3.17;;
2956;SDS011;1488;51.548;7.222;2023-05-14T06:50:47;2.90;;;2.70;;
2956;SDS011;1488;51.548;7.222;2023-05-14T06:53:15;2.80;;;2.60;;
2956;SDS011;1488;51.548;7.222;2023-05-14T06:55:42;2.50;;;2.30;;
2956;SDS011;1488;51.548;7.222;2023-05-14T06:58:12;2.80;;;2.60;;
2956;SDS011;1488;51.548;7.222;2023-05-14T07:00:39;3.43;;;3.20;;
2956;SDS011;1488;51.548;7.222;2023-05-14T07:03:06;2.53;;;2.40;;
2956;SDS011;1488;51.548;7.222;2023-05-14T07:05:34;2.37;;;2.27;;
2956;SDS011;1488;51.548;7.222;2023-05-14T07:08:01;2.93;;;2.70;;
2956;SDS011;1488;51.548;7.222;2023-05-14T07:10:28;2.97;;;2.77;;
2956;SDS011;1488;51.548;7.222;2023-05-14T07:12:56;2.53;;;2.37;;
2956;SDS011;1488;51.548;7.222;2023-05-14T07:15:23;3.17;;;2.97;;
2956;SDS011;1488;51.548;7.222;2023-05-14T07:17:50;3.10;;;2.90;;
2956;SDS011;1488;51.548;7.222;2023-05-14T07:20:19;3.10;;;2.80;;
2956;SDS011;1488;51.548;7.222;2023-05-14T07:22:49;3.00;;;2.80;;
2956;SDS011;1488;51.548;7.222;2023-05-14T07:25:17;2.67;;;2.47;;
2956;SDS011;1488;51.548;7.222;2023-05-14T07:27:44;2.87;;;2.67;;
2956;SDS011;1488;51.548;7.222;2023-05-14T07:30:11;2.93;;;2.73;;
2956;SDS011;1488;51.548;7.222;2023-05-14T07:32:40;2.90;;;2.70;;
2956;SDS011;1488;51.548;7.222;2023-05-14T07:35:07;2.77;;;2.57;;
2956;SDS011;1488;51.548;7.222;2023-05-14T07:37:35;3.20;;;3.00;;
2956;SDS011;1488;51.548;7.222;2023-05-14T07:40:05;2.63;;;2.33;;
2956;SDS011;1488;51.548;7.222;2023-05-14T07:42:33;2.57;;;2.37;;
2956;SDS011;1488;51.548;7.222;2023-05-14T07:45:00;2.90;;;2.70;;
2956;SDS011;1488;51.548;7.222;2023-05-14T07:47:27;3.13;;;2.93;;
2956;SDS011;1488;51.548;7.222;2023-05-14T07:49:54;2.23;;;2.13;;
2956;SDS011;1488;51.548;7.222;2023-05-14T07:52:22;2.60;;;2.40;;
2956;SDS011;1488;51.548;7.222;2023-05-14T07:54:49;2.63;;;2.43;;
2956;SDS011;1488;51.548;7.222;2023-05-14T07:57:18;2.60;;;2.40;;
2956;SDS011;1488;51.548;7.222;2023-05-14T07:59:46;3.23;;;3.03;;
2956;SDS011;1488;51.548;7.222;2023-05-14T08:02:12;2.00;;;1.90;;
2956;SDS011;1488;51.548;7.222;2023-05-14T08:04:40;2.40;;;2.20;;
2956;SDS011;1488;51.548;7.222;2023-05-14T08:07:07;2.40;;;2.27;;
2956;SDS011;1488;51.548;7.222;2023-05-14T08:09:34;2.57;;;2.37;;
2956;SDS011;1488;51.548;7.222;2023-05-14T08:12:01;2.60;;;2.40;;
2956;SDS011;1488;51.548;7.222;2023-05-14T08:14:29;2.00;;;1.90;;
2956;SDS011;1488;51.548;7.222;2023-05-14T08:16:56;2.90;;;2.70;;
2956;SDS011;1488;51.548;7.222;2023-05-14T08:19:23;1.90;;;1.80;;
2956;SDS011;1488;51.548;7.222;2023-05-14T08:21:51;2.20;;;2.10;;
2956;SDS011;1488;51.548;7.222;2023-05-14T08:24:18;2.50;;;2.30;;
2956;SDS011;1488;51.548;7.222;2023-05-14T08:26:45;2.87;;;2.63;;
2956;SDS011;1488;51.548;7.222;2023-05-14T08:29:12;2.53;;;2.40;;
2956;SDS011;1488;51.548;7.222;2023-05-14T08:31:40;2.30;;;2.20;;
2956;SDS011;1488;51.548;7.222;2023-05-14T08:34:07;2.20;;;2.07;;
2956;SDS011;1488;51.548;7.222;2023-05-14T08:36:34;2.57;;;2.40;;
2956;SDS011;1488;51.548;7.222;2023-05-14T08:39:01;2.70;;;2.50;;
2956;SDS011;1488;51.548;7.222;2023-05-14T08:41:28;2.30;;;2.20;;
2956;SDS011;1488;51.548;7.222;2023-05-14T08:43:56;2.10;;;2.00;;
2956;SDS011;1488;51.548;7.222;2023-05-14T08:46:31;2.20;;;2.00;;
2956;SDS011;1488;51.548;7.222;2023-05-14T08:49:04;3.00;;;2.80;;
2956;SDS011;1488;51.548;7.222;2023-05-14T08:51:40;2.40;;;2.30;;
2956;SDS011;1488;51.548;7.222;2023-05-14T08:54:07;2.53;;;2.23;;
2956;SDS011;1488;51.548;7.222;2023-05-14T08:56:35;2.43;;;2.23;;
2956;SDS011;1488;51.548;7.222;2023-05-14T08:59:04;2.10;;;2.00;;
2956;SDS011;1488;51.548;7.222;2023-05-14T09:01:31;2.17;;;2.03;;
2956;SDS011;1488;51.548;7.222;2023-05-14T09:03:58;2.33;;;2.20;;
2956;SDS011;1488;51.548;7.222;2023-05-14T09:06:32;2.40;;;2.20;;
2956;SDS011;1488;51.548;7.222;2023-05-14T09:09:01;2.50;;;2.30;;
2956;SDS011;1488;51.548;7.222;2023-05-14T09:11:28;2.10;;;2.00;;
2956;SDS011;1488;51.548;7.222;2023-05-14T09:13:55;2.47;;;2.30;;
2956;SDS011;1488;51.548;7.222;2023-05-14T09:16:22;2.00;;;1.90;;
2956;SDS011;1488;51.548;7.222;2023-05-14T09:18:51;1.87;;;1.77;;
2956;SDS011;1488;51.548;7.222;2023-05-14T09:21:18;2.20;;;2.10;;
2956;SDS011;1488;51.548;7.222;2023-05-14T09:23:47;2.40;;;2.30;;
2956;SDS011;1488;51.548;7.222;2023-05-14T09:26:21;2.40;;;2.20;;
2956;SDS011;1488;51.548;7.222;2023-05-14T09:28:51;2.00;;;1.90;;
2956;SDS011;1488;51.548;7.222;2023-05-14T09:31:19;2.20;;;2.10;;
2956;SDS011;1488;51.548;7.222;2023-05-14T09:33:48;1.93;;;1.83;;
2956;SDS011;1488;51.548;7.222;2023-05-14T09:36:15;2.17;;;2.07;;
2956;SDS011;1488;51.548;7.222;2023-05-14T09:38:43;2.37;;;2.20;;
2956;SDS011;1488;51.548;7.222;2023-05-14T09:41:11;2.13;;;1.93;;
2956;SDS011;1488;51.548;7.222;2023-05-14T09:43:38;2.27;;;2.17;;
2956;SDS011;1488;51.548;7.222;2023-05-14T09:46:05;2.10;;;1.90;;
2956;SDS011;1488;51.548;7.222;2023-05-14T09:48:32;2.20;;;2.10;;
2956;SDS011;1488;51.548;7.222;2023-05-14T09:50:58;2.10;;;2.00;;
2956;SDS011;1488;51.548;7.222;2023-05-14T09:53:26;2.50;;;2.33;;
2956;SDS011;1488;51.548;7.222;2023-05-14T09:55:54;2.63;;;2.10;;
2956;SDS011;1488;51.548;7.222;2023-05-14T09:58:23;2.23;;;2.03;;
2956;SDS011;1488;51.548;7.222;2023-05-14T10:00:50;2.03;;;1.93;;
2956;SDS011;1488;51.548;7.222;2023-05-14T10:03:18;2.00;;;1.90;;
2956;SDS011;1488;51.548;7.222;2023-05-14T10:05:47;2.03;;;1.93;;
2956;SDS011;1488;51.548;7.222;2023-05-14T10:08:17;2.03;;;1.93;;
2956;SDS011;1488;51.548;7.222;2023-05-14T10:10:49;1.63;;;1.53;;
2956;SDS011;1488;51.548;7.222;2023-05-14T10:13:19;1.73;;;1.63;;
2956;SDS011;1488;51.548;7.222;2023-05-14T10:15:50;2.10;;;2.00;;
2956;SDS011;1488;51.548;7.222;2023-05-14T10:18:22;1.97;;;1.87;;
2956;SDS011;1488;51.548;7.222;2023-05-14T10:20:52;2.17;;;1.97;;
2956;SDS011;1488;51.548;7.222;2023-05-14T10:23:27;2.07;;;1.97;;
2956;SDS011;1488;51.548;7.222;2023-05-14T10:25:55;2.20;;;2.10;;
2956;SDS011;1488;51.548;7.222;2023-05-14T10:28:22;1.87;;;1.77;;
2956;SDS011;1488;51.548;7.222;2023-05-14T10:30:51;1.90;;;1.80;;
2956;SDS011;1488;51.548;7.222;2023-05-14T10:33:19;1.90;;;1.80;;
2956;SDS011;1488;51.548;7.222;2023-05-14T10:35:59;1.97;;;1.83;;
2956;SDS011;1488;51.548;7.222;2023-05-14T10:38:28;1.80;;;1.70;;
2956;SDS011;1488;51.548;7.222;2023-05-14T10:40:59;2.47;;;2.27;;
2956;SDS011;1488;51.548;7.222;2023-05-14T10:43:27;1.83;;;1.73;;
2956;SDS011;1488;51.548;7.222;2023-05-14T10:45:57;1.83;;;1.70;;
2956;SDS011;1488;51.548;7.222;2023-05-14T10:48:24;1.77;;;1.67;;
2956;SDS011;1488;51.548;7.222;2023-05-14T10:50:52;1.80;;;1.70;;
2956;SDS011;1488;51.548;7.222;2023-05-14T10:53:19;2.20;;;2.10;;
2956;SDS011;1488;51.548;7.222;2023-05-14T10:55:46;1.50;;;1.40;;
2956;SDS011;1488;51.548;7.222;2023-05-14T10:58:13;2.47;;;2.27;;
2956;SDS011;1488;51.548;7.222;2023-05-14T11:00:40;1.67;;;1.57;;
2956;SDS011;1488;51.548;7.222;2023-05-14T11:03:08;1.80;;;1.70;;
2956;SDS011;1488;51.548;7.222;2023-05-14T11:05:37;1.80;;;1.70;;
2956;SDS011;1488;51.548;7.222;2023-05-14T11:08:05;1.97;;;1.87;;
2956;SDS011;1488;51.548;7.222;2023-05-14T11:10:33;2.13;;;2.03;;
2956;SDS011;1488;51.548;7.222;2023-05-14T11:13:01;2.30;;;2.10;;
2956;SDS011;1488;51.548;7.222;2023-05-14T11:15:27;2.07;;;1.97;;
2956;SDS011;1488;51.548;7.222;2023-05-14T11:17:54;1.70;;;1.60;;
2956;SDS011;1488;51.548;7.222;2023-05-14T11:20:22;2.00;;;1.90;;
2956;SDS011;1488;51.548;7.222;2023-05-14T11:22:49;1.70;;;1.60;;
2956;SDS011;1488;51.548;7.222;2023-05-14T11:25:16;2.33;;;1.40;;
2956;SDS011;1488;51.548;7.222;2023-05-14T11:27:44;1.73;;;1.63;;
2956;SDS011;1488;51.548;7.222;2023-05-14T11:30:12;1.90;;;1.80;;
2956;SDS011;1488;51.548;7.222;2023-05-14T11:32:40;2.00;;;1.90;;
2956;SDS011;1488;51.548;7.222;2023-05-14T11:35:09;1.80;;;1.70;;
2956;SDS011;1488;51.548;7.222;2023-05-14T11:37:37;1.73;;;1.63;;
2956;SDS011;1488;51.548;7.222;2023-05-14T11:40:06;1.70;;;1.60;;
2956;SDS011;1488;51.548;7.222;2023-05-14T11:42:35;1.70;;;1.60;;
2956;SDS011;1488;51.548;7.222;2023-05-14T11:45:02;1.47;;;1.37;;
2956;SDS011;1488;51.548;7.222;2023-05-14T11:47:30;1.50;;;1.40;;
2956;SDS011;1488;51.548;7.222;2023-05-14T11:49:57;1.50;;;1.40;;
2956;SDS011;1488;51.548;7.222;2023-05-14T11:52:25;1.60;;;1.50;;
2956;SDS011;1488;51.548;7.222;2023-05-14T11:54:53;1.80;;;1.70;;
2956;SDS011;1488;51.548;7.222;2023-05-14T11:57:21;1.80;;;1.70;;
2956;SDS011;1488;51.548;7.222;2023-05-14T11:59:48;1.73;;;1.63;;
2956;SDS011;1488;51.548;7.222;2023-05-14T12:02:21;2.53;;;2.33;;
2956;SDS011;1488;51.548;7.222;2023-05-14T12:04:51;1.80;;;1.70;;
2956;SDS011;1488;51.548;7.222;2023-05-14T12:07:19;1.70;;;1.60;;
2956;SDS011;1488;51.548;7.222;2023-05-14T12:09:46;1.30;;;1.20;;
2956;SDS011;1488;51.548;7.222;2023-05-14T12:12:16;1.97;;;1.87;;
2956;SDS011;1488;51.548;7.222;2023-05-14T12:14:44;1.87;;;1.77;;
2956;SDS011;1488;51.548;7.222;2023-05-14T12:17:12;2.10;;;2.00;;
2956;SDS011;1488;51.548;7.222;2023-05-14T12:19:40;1.50;;;1.40;;
2956;SDS011;1488;51.548;7.222;2023-05-14T12:22:08;1.63;;;1.53;;
2956;SDS011;1488;51.548;7.222;2023-05-14T12:24:35;1.73;;;1.63;;
2956;SDS011;1488;51.548;7.222;2023-05-14T12:27:03;1.40;;;1.30;;
2956;SDS011;1488;51.548;7.222;2023-05-14T12:29:33;1.70;;;1.60;;
2956;SDS011;1488;51.548;7.222;2023-05-14T12:32:02;1.60;;;1.43;;
2956;SDS011;1488;51.548;7.222;2023-05-14T12:34:32;1.50;;;1.40;;
2956;SDS011;1488;51.548;7.222;2023-05-14T12:36:59;1.67;;;1.57;;
2956;SDS011;1488;51.548;7.222;2023-05-14T12:39:26;1.73;;;1.63;;
2956;SDS011;1488;51.548;7.222;2023-05-14T12:41:53;1.97;;;1.87;;
2956;SDS011;1488;51.548;7.222;2023-05-14T12:44:20;1.60;;;1.50;;
2956;SDS011;1488;51.548;7.222;2023-05-14T12:46:48;1.43;;;1.33;;
2956;SDS011;1488;51.548;7.222;2023-05-14T12:49:15;1.47;;;1.37;;
2956;SDS011;1488;51.548;7.222;2023-05-14T12:51:42;1.60;;;1.50;;
2956;SDS011;1488;51.548;7.222;2023-05-14T12:54:10;1.60;;;1.50;;
2956;SDS011;1488;51.548;7.222;2023-05-14T12:56:39;1.60;;;1.50;;
2956;SDS011;1488;51.548;7.222;2023-05-14T12:59:06;1.70;;;1.60;;
2956;SDS011;1488;51.548;7.222;2023-05-14T13:01:33;1.50;;;1.40;;
2956;SDS011;1488;51.548;7.222;2023-05-14T13:04:03;1.70;;;1.60;;
2956;SDS011;1488;51.548;7.222;2023-05-14T13:06:30;1.63;;;1.53;;
2956;SDS011;1488;51.548;7.222;2023-05-14T13:08:57;1.43;;;1.33;;
2956;SDS011;1488;51.548;7.222;2023-05-14T13:11:26;1.90;;;1.80;;
2956;SDS011;1488;51.548;7.222;2023-05-14T13:13:55;2.00;;;1.80;;
2956;SDS011;1488;51.548;7.222;2023-05-14T13:16:22;1.40;;;1.30;;
2956;SDS011;1488;51.548;7.222;2023-05-14T13:18:50;1.37;;;1.27;;
2956;SDS011;1488;51.548;7.222;2023-05-14T13:21:18;1.73;;;1.43;;
2956;SDS011;1488;51.548;7.222;2023-05-14T13:23:45;1.40;;;1.30;;
2956;SDS011;1488;51.548;7.222;2023-05-14T13:26:12;1.47;;;1.37;;
2956;SDS011;1488;51.548;7.222;2023-05-14T13:28:39;1.50;;;1.40;;
2956;SDS011;1488;51.548;7.222;2023-05-14T13:31:07;1.60;;;1.50;;
2956;SDS011;1488;51.548;7.222;2023-05-14T13:33:35;1.33;;;1.23;;
2956;SDS011;1488;51.548;7.222;2023-05-14T13:36:02;1.37;;;1.27;;
2956;SDS011;1488;51.548;7.222;2023-05-14T13:38:31;1.43;;;1.33;;
2956;SDS011;1488;51.548;7.222;2023-05-14T13:40:58;1.53;;;1.43;;
2956;SDS011;1488;51.548;7.222;2023-05-14T13:43:27;1.60;;;1.50;;
2956;SDS011;1488;51.548;7.222;2023-05-14T13:45:54;1.40;;;1.30;;
2956;SDS011;1488;51.548;7.222;2023-05-14T13:48:21;1.50;;;1.40;;
2956;SDS011;1488;51.548;7.222;2023-05-14T13:50:48;1.40;;;1.30;;
2956;SDS011;1488;51.548;7.222;2023-05-14T13:53:16;1.50;;;1.40;;
2956;SDS011;1488;51.548;7.222;2023-05-14T13:55:44;1.70;;;1.60;;
2956;SDS011;1488;51.548;7.222;2023-05-14T13:58:11;1.60;;;1.50;;
2956;SDS011;1488;51.548;7.222;2023-05-14T14:00:38;1.67;;;1.57;;
2956;SDS011;1488;51.548;7.222;2023-05-14T14:03:05;1.47;;;1.37;;
2956;SDS011;1488;51.548;7.222;2023-05-14T14:05:33;1.40;;;1.30;;
2956;SDS011;1488;51.548;7.222;2023-05-14T14:08:00;1.90;;;1.80;;
2956;SDS011;1488;51.548;7.222;2023-05-14T14:10:27;1.40;;;1.30;;
2956;SDS011;1488;51.548;7.222;2023-05-14T14:12:55;1.53;;;1.43;;
2956;SDS011;1488;51.548;7.222;2023-05-14T14:15:22;1.50;;;1.40;;
2956;SDS011;1488;51.548;7.222;2023-05-14T14:17:49;1.63;;;1.53;;
2956;SDS011;1488;51.548;7.222;2023-05-14T14:20:16;1.50;;;1.33;;
2956;SDS011;1488;51.548;7.222;2023-05-14T14:22:42;1.50;;;1.40;;
2956;SDS011;1488;51.548;7.222;2023-05-14T14:25:09;1.60;;;1.40;;
2956;SDS011;1488;51.548;7.222;2023-05-14T14:27:36;1.57;;;1.47;;
2956;SDS011;1488;51.548;7.222;2023-05-14T14:30:07;1.60;;;1.50;;
2956;SDS011;1488;51.548;7.222;2023-05-14T14:32:39;1.57;;;1.47;;
2956;SDS011;1488;51.548;7.222;2023-05-14T14:35:07;1.60;;;1.43;;
2956;SDS011;1488;51.548;7.222;2023-05-14T14:37:34;1.60;;;1.50;;
2956;SDS011;1488;51.548;7.222;2023-05-14T14:40:01;1.70;;;1.60;;
2956;SDS011;1488;51.548;7.222;2023-05-14T14:42:28;1.80;;;1.60;;
2956;SDS011;1488;51.548;7.222;2023-05-14T14:44:54;1.73;;;1.60;;
2956;SDS011;1488;51.548;7.222;2023-05-14T14:47:23;1.57;;;1.47;;
2956;SDS011;1488;51.548;7.222;2023-05-14T14:49:50;1.57;;;1.47;;
2956;SDS011;1488;51.548;7.222;2023-05-14T14:52:16;1.60;;;1.50;;
2956;SDS011;1488;51.548;7.222;2023-05-14T14:54:43;1.40;;;1.30;;
2956;SDS011;1488;51.548;7.222;2023-05-14T14:57:10;1.53;;;1.43;;
2956;SDS011;1488;51.548;7.222;2023-05-14T14:59:37;1.23;;;1.13;;
2956;SDS011;1488;51.548;7.222;2023-05-14T15:02:04;1.40;;;1.30;;
2956;SDS011;1488;51.548;7.222;2023-05-14T15:04:32;1.67;;;1.47;;
2956;SDS011;1488;51.548;7.222;2023-05-14T15:06:59;1.50;;;1.40;;
2956;SDS011;1488;51.548;7.222;2023-05-14T15:09:27;1.50;;;1.40;;
2956;SDS011;1488;51.548;7.222;2023-05-14T15:11:54;1.33;;;1.23;;
2956;SDS011;1488;51.548;7.222;2023-05-14T15:14:21;1.50;;;1.40;;
2956;SDS011;1488;51.548;7.222;2023-05-14T15:16:48;1.50;;;1.40;;
2956;SDS011;1488;51.548;7.222;2023-05-14T15:19:15;1.40;;;1.30;;